Time;durP1;ratioP1;P1;durP2;ratioP2;P2;SDS_P1;SDS_P2;PMS_P1;PMS_P2;Temp;Humidity;BMP_temperature;BMP_pressure;BME280_temperature;BME280_humidity;BME280_pressure;Samples;Min_cycle;Max_cycle;Signal;HPM_P1;HPM_P2
2022/08/22 00:00:15;;;;;;;;;;;;;;;12.18;100.00;95388.84;5067937;28;19946;-76
2022/08/22 00:03:00;;;;;;;;;;;;;;;12.18;100.00;95391.50;5073038;28;19927;-77
2022/08/22 00:05:45;;;;;;;;;;;;;;;12.14;100.00;95395.78;5068726;28;19924;-77
2022/08/22 00:08:15;;;;;;;;;;;;;;;12.12;100.00;95392.63;5059292;28;19920;-77
2022/08/22 00:10:50;;;;;;;;;;;;;;;12.06;100.00;95388.50;5069041;28;19924;-77
2022/08/22 00:13:21;;;;;;;;;;;;;;;12.07;100.00;95390.06;5063485;28;19935;-77
2022/08/22 00:15:51;;;;;;;;;;;;;;;12.03;100.00;95386.41;5070205;28;20375;-77
2022/08/22 00:18:35;;;;;;;;;;;;;;;12.03;100.00;95389.06;5064619;28;19931;-77
2022/08/22 00:21:12;;;;;;;;;;;;;;;11.96;100.00;95390.16;5053008;28;20729;-76
2022/08/22 00:23:44;;;;;;;;;;;;;;;11.96;100.00;95394.66;5054187;28;19920;-77
2022/08/22 00:26:19;;;;;;;;;;;;;;;11.99;100.00;95388.03;5065149;28;19926;-76
2022/08/22 00:28:52;;;;;;;;;;;;;;;11.92;100.00;95394.41;5069479;28;19928;-77
2022/08/22 00:31:20;;;;;;;;;;;;;;;11.96;100.00;95395.44;5070716;28;19924;-76
2022/08/22 00:33:51;;;;;;;;;;;;;;;11.92;100.00;95397.06;5068729;28;19924;-77
2022/08/22 00:36:26;;;;;;;;;;;;;;;11.89;100.00;95397.59;5052054;28;19924;-77
2022/08/22 00:39:11;;;;;;;;;;;;;;;11.92;100.00;95389.13;5057185;28;19924;-77
2022/08/22 00:41:37;;;;;;;;;;;;;;;11.78;100.00;95393.50;5015803;28;19932;-76
2022/08/22 00:44:11;;;;;;;;;;;;;;;11.83;100.00;95390.81;5060378;28;21923;-77
2022/08/22 00:46:36;;;;;;;;;;;;;;;11.80;100.00;95391.38;5071430;28;19931;-76
2022/08/22 00:49:02;;;;;;;;;;;;;;;11.76;100.00;95390.34;5062560;28;19928;-77
2022/08/22 00:51:53;;;;;;;;;;;;;;;11.85;100.00;95390.53;5063526;28;19954;-77
2022/08/22 00:54:57;;;;;;;;;;;;;;;11.87;100.00;95391.03;5067243;28;20011;-76
2022/08/22 00:57:30;;;;;;;;;;;;;;;11.86;100.00;95390.25;5001221;28;19921;-76
2022/08/22 00:59:58;;;;;;;;;;;;;;;11.90;100.00;95396.53;5000185;28;20758;-77
2022/08/22 01:02:44;;;;;;;;;;;;;;;11.96;100.00;95390.16;5029043;28;19924;-76
2022/08/22 01:05:28;;;;;;;;;;;;;;;11.79;100.00;95389.78;5066880;28;19921;-76
2022/08/22 01:08:09;;;;;;;;;;;;;;;11.84;100.00;95391.56;5046595;28;19970;-76
2022/08/22 01:10:41;;;;;;;;;;;;;;;11.79;100.00;95395.06;5063670;28;20010;-76
2022/08/22 01:13:30;;;;;;;;;;;;;;;11.83;100.00;95396.06;5060586;28;19925;-76
2022/08/22 01:16:07;;;;;;;;;;;;;;;11.88;100.00;95397.88;5028886;28;19987;-76
2022/08/22 01:18:49;;;;;;;;;;;;;;;11.89;100.00;95400.22;5067649;28;19943;-76
2022/08/22 01:21:44;;;;;;;;;;;;;;;11.87;100.00;95397.09;5062942;28;19927;-76
2022/08/22 01:24:12;;;;;;;;;;;;;;;11.84;100.00;95391.56;5047378;28;19974;-77
2022/08/22 01:26:56;;;;;;;;;;;;;;;11.84;100.00;95387.09;5079930;28;19965;-77
2022/08/22 01:29:41;;;;;;;;;;;;;;;11.79;100.00;95384.50;5052523;28;19928;-76
2022/08/22 01:32:25;;;;;;;;;;;;;;;11.75;100.00;95383.50;5078296;28;19924;-76
2022/08/22 01:35:08;;;;;;;;;;;;;;;11.69;100.00;95385.41;5067772;28;20393;-76
2022/08/22 01:37:40;;;;;;;;;;;;;;;11.78;100.00;95393.50;5069928;28;19928;-76
2022/08/22 01:40:24;;;;;;;;;;;;;;;11.74;100.00;95387.22;5074794;28;19921;-77
2022/08/22 01:42:58;;;;;;;;;;;;;;;11.66;100.00;95385.97;5072358;28;19920;-77
2022/08/22 01:45:28;;;;;;;;;;;;;;;11.66;100.00;95390.47;5073859;28;20289;-77
2022/08/22 01:47:53;;;;;;;;;;;;;;;11.67;100.00;95392.03;5071124;28;20382;-76
2022/08/22 01:50:31;;;;;;;;;;;;;;;11.57;100.00;95383.16;5079872;28;19923;-76
2022/08/22 01:53:02;;;;;;;;;;;;;;;11.55;100.00;95385.28;5075447;28;19975;-76
2022/08/22 01:55:37;;;;;;;;;;;;;;;11.54;100.00;95385.56;5077140;28;19923;-76
2022/08/22 01:58:13;;;;;;;;;;;;;;;11.47;100.00;95385.88;5076946;28;19924;-76
2022/08/22 02:00:57;;;;;;;;;;;;;;;11.55;100.00;95385.28;5076256;28;19952;-76
2022/08/22 02:03:32;;;;;;;;;;;;;;;11.52;100.00;95383.22;5065818;28;20348;-76
2022/08/22 02:06:01;;;;;;;;;;;;;;;11.50;100.00;95387.97;5075095;28;20031;-76
2022/08/22 02:08:49;;;;;;;;;;;;;;;11.56;100.00;95386.84;5062393;28;19931;-77
2022/08/22 02:11:34;;;;;;;;;;;;;;;11.51;100.00;95383.50;5067465;28;19920;-77
2022/08/22 02:14:06;;;;;;;;;;;;;;;11.52;100.00;95391.13;5072296;28;20543;-77
2022/08/22 02:16:40;;;;;;;;;;;;;;;11.45;100.00;95380.13;5074249;28;19924;-76
2022/08/22 02:19:08;;;;;;;;;;;;;;;11.43;100.00;95382.22;5074619;28;19921;-76
2022/08/22 02:21:43;;;;;;;;;;;;;;;11.40;100.00;95385.41;5065387;28;19920;-76
2022/08/22 02:24:18;;;;;;;;;;;;;;;11.48;100.00;95387.47;5072229;28;20369;-77
2022/08/22 02:27:06;;;;;;;;;;;;;;;11.49;100.00;95381.09;5062259;28;20058;-77
2022/08/22 02:29:38;;;;;;;;;;;;;;;11.48;100.00;95384.03;5066732;28;20020;-76
2022/08/22 02:32:15;;;;;;;;;;;;;;;11.39;100.00;95386.47;5060532;28;19966;-76
2022/08/22 02:34:41;;;;;;;;;;;;;;;11.41;100.00;95384.38;5062641;28;20417;-76
2022/08/22 02:37:13;;;;;;;;;;;;;;;11.38;100.00;95380.44;5065379;28;19925;-77
2022/08/22 02:40:00;;;;;;;;;;;;;;;11.40;100.00;95380.16;5069292;28;20390;-77
2022/08/22 02:42:42;;;;;;;;;;;;;;;11.42;100.00;95380.66;5058578;28;20251;-76
2022/08/22 02:45:22;;;;;;;;;;;;;;;11.41;100.00;95390.41;5035988;28;19978;-77
2022/08/22 02:48:03;;;;;;;;;;;;;;;11.37;100.00;95388.59;5077276;28;19920;-76
2022/08/22 02:50:36;;;;;;;;;;;;;;;11.36;100.00;95384.41;5073600;28;19920;-77
2022/08/22 02:53:40;;;;;;;;;;;;;;;11.32;100.00;95386.00;5049847;28;19928;-75
2022/08/22 02:56:12;;;;;;;;;;;;;;;11.33;100.00;95382.31;4980724;28;19929;-77
2022/08/22 02:58:50;;;;;;;;;;;;;;;11.14;100.00;95382.22;4985768;28;19922;-77
2022/08/22 03:01:15;;;;;;;;;;;;;;;11.21;100.00;95386.09;5047282;28;19920;-77
2022/08/22 03:03:44;;;;;;;;;;;;;;;11.26;100.00;95388.69;5074927;28;19947;-77
2022/08/22 03:06:31;;;;;;;;;;;;;;;11.36;100.00;95397.56;5065838;28;20438;-77
2022/08/22 03:08:59;;;;;;;;;;;;;;;11.36;100.00;95403.63;5057115;28;19943;-76
2022/08/22 03:11:34;;;;;;;;;;;;;;;11.43;100.00;95398.84;5067740;28;20335;-76
2022/08/22 03:14:25;;;;;;;;;;;;;;;11.35;100.00;95398.63;5061102;28;19927;-77
2022/08/22 03:16:59;;;;;;;;;;;;;;;11.29;100.00;95399.72;5067969;28;19924;-77
2022/08/22 03:19:30;;;;;;;;;;;;;;;11.39;100.00;95391.75;5062099;28;19928;-77
2022/08/22 03:22:02;;;;;;;;;;;;;;;11.39;100.00;95397.00;5071599;28;19928;-77
2022/08/22 03:24:34;;;;;;;;;;;;;;;11.27;100.00;95395.53;5061776;28;19981;-77
2022/08/22 03:27:12;;;;;;;;;;;;;;;11.32;100.00;95388.63;5073442;28;19926;-77
2022/08/22 03:29:42;;;;;;;;;;;;;;;11.34;100.00;95389.16;5077335;28;20455;-77
2022/08/22 03:32:13;;;;;;;;;;;;;;;11.27;100.00;95392.88;5079883;28;19920;-77
2022/08/22 03:34:57;;;;;;;;;;;;;;;11.33;100.00;95392.84;5054224;28;20291;-77
2022/08/22 03:37:30;;;;;;;;;;;;;;;11.32;100.00;95396.53;5059062;28;19924;-77
2022/08/22 03:40:05;;;;;;;;;;;;;;;11.33;100.00;95398.13;5065543;28;19927;-75
2022/08/22 03:42:30;;;;;;;;;;;;;;;11.30;100.00;95401.31;5057544;28;20003;-75
2022/08/22 03:44:58;;;;;;;;;;;;;;;11.19;100.00;95404.03;5058239;28;20034;-75
2022/08/22 03:47:43;;;;;;;;;;;;;;;11.15;100.00;95408.28;5055356;28;19925;-76
2022/08/22 03:50:09;;;;;;;;;;;;;;;11.13;100.00;95402.47;5052761;28;19959;-76
2022/08/22 03:53:08;;;;;;;;;;;;;;;11.11;100.00;95412.50;5065993;28;19999;-77
2022/08/22 03:55:36;;;;;;;;;;;;;;;11.18;100.00;95407.72;5075296;28;19924;-77
2022/08/22 03:58:14;;;;;;;;;;;;;;;11.18;100.00;95418.25;5062324;28;19925;-77
2022/08/22 04:01:02;;;;;;;;;;;;;;;11.21;100.00;95415.06;5060418;28;19921;-77
2022/08/22 04:03:36;;;;;;;;;;;;;;;11.14;100.00;95419.09;5066028;28;20022;-78
2022/08/22 04:06:40;;;;;;;;;;;;;;;11.15;100.00;95416.19;5060482;28;19924;-76
2022/08/22 04:09:24;;;;;;;;;;;;;;;11.10;100.00;95418.84;4985847;28;19921;-77
2022/08/22 04:12:07;;;;;;;;;;;;;;;11.07;100.00;95432.56;4990729;28;19922;-78
2022/08/22 04:14:53;;;;;;;;;;;;;;;11.12;100.00;95427.25;5044816;28;19924;-77
2022/08/22 04:17:30;;;;;;;;;;;;;;;11.07;100.00;95416.75;5061271;28;20033;-77
2022/08/22 04:20:08;;;;;;;;;;;;;;;11.01;100.00;95420.50;5063657;28;19973;-77
2022/08/22 04:22:52;;;;;;;;;;;;;;;10.89;100.00;95418.97;5065812;28;19921;-77
2022/08/22 04:25:22;;;;;;;;;;;;;;;10.92;100.00;95420.28;5072555;28;19920;-77
2022/08/22 04:28:04;;;;;;;;;;;;;;;10.91;100.00;95424.75;5071732;28;19921;-77
2022/08/22 04:30:34;;;;;;;;;;;;;;;10.91;100.00;95419.47;5069349;28;19924;-77
2022/08/22 04:33:19;;;;;;;;;;;;;;;10.96;100.00;95420.50;5059204;28;20302;-77
2022/08/22 04:36:02;;;;;;;;;;;;;;;10.89;100.00;95413.72;5055324;28;19920;-77
2022/08/22 04:38:32;;;;;;;;;;;;;;;10.87;100.00;95413.19;5072529;28;19920;-77
2022/08/22 04:41:12;;;;;;;;;;;;;;;10.91;100.00;95416.84;5079022;28;19928;-77
2022/08/22 04:43:41;;;;;;;;;;;;;;;10.76;100.00;95406.44;5051673;28;20442;-77
2022/08/22 04:46:06;;;;;;;;;;;;;;;10.86;100.00;95410.81;5079536;28;19931;-76
2022/08/22 04:48:36;;;;;;;;;;;;;;;10.88;100.00;95419.25;5058955;28;19947;-77
2022/08/22 04:51:07;;;;;;;;;;;;;;;10.87;100.00;95417.69;5063511;28;19981;-76
2022/08/22 04:53:39;;;;;;;;;;;;;;;10.87;100.00;95418.44;5069075;28;19921;-76
2022/08/22 04:56:10;;;;;;;;;;;;;;;10.92;100.00;95420.28;5056681;28;19930;-77
2022/08/22 04:58:54;;;;;;;;;;;;;;;10.96;100.00;95420.50;5064762;28;19943;-77
2022/08/22 05:01:22;;;;;;;;;;;;;;;10.98;100.00;95418.41;5077311;28;19928;-78
2022/08/22 05:03:52;;;;;;;;;;;;;;;11.02;100.00;95420.22;5056409;28;19920;-77
2022/08/22 05:06:19;;;;;;;;;;;;;;;11.03;100.00;95426.25;5082841;28;19925;-77
2022/08/22 05:08:45;;;;;;;;;;;;;;;10.98;100.00;95418.41;5063859;28;19920;-77
2022/08/22 05:11:13;;;;;;;;;;;;;;;11.01;100.00;95417.84;5075142;28;19966;-77
2022/08/22 05:13:46;;;;;;;;;;;;;;;11.01;100.00;95423.13;5060503;28;19929;-77
2022/08/22 05:16:14;;;;;;;;;;;;;;;11.10;100.00;95429.38;5071113;28;19932;-76
2022/08/22 05:18:46;;;;;;;;;;;;;;;11.19;100.00;95430.38;5060106;28;20019;-77
2022/08/22 05:21:13;;;;;;;;;;;;;;;11.23;100.00;95428.78;5064498;28;20294;-77
2022/08/22 05:23:42;;;;;;;;;;;;;;;11.25;100.00;95434.53;5070346;28;20385;-77
2022/08/22 05:26:08;;;;;;;;;;;;;;;11.31;100.00;95439.78;5081741;28;19955;-77
2022/08/22 05:28:36;;;;;;;;;;;;;;;11.34;100.00;95441.84;5071360;28;19920;-77
2022/08/22 05:31:04;;;;;;;;;;;;;;;11.44;100.00;95441.78;5055696;28;19994;-77
2022/08/22 05:33:32;;;;;;;;;;;;;;;11.52;100.00;95438.56;5066487;28;19920;-77
2022/08/22 05:36:02;;;;;;;;;;;;;;;11.67;100.00;95439.47;5070499;28;19928;-78
2022/08/22 05:38:30;;;;;;;;;;;;;;;11.73;100.00;95439.13;5060688;28;19920;-77
2022/08/22 05:41:02;;;;;;;;;;;;;;;11.81;100.00;95445.69;5072970;28;19962;-77
2022/08/22 05:43:27;;;;;;;;;;;;;;;12.01;100.00;95454.47;5074790;28;19920;-77
2022/08/22 05:45:54;;;;;;;;;;;;;;;12.25;100.00;95454.47;5073897;28;19927;-77
2022/08/22 05:48:24;;;;;;;;;;;;;;;12.45;100.00;95443.69;5078971;28;19959;-77
2022/08/22 05:50:54;;;;;;;;;;;;;;;12.57;100.00;95445.94;5070542;28;19927;-77
2022/08/22 05:53:35;;;;;;;;;;;;;;;12.62;100.00;95437.94;5061801;28;19966;-77
2022/08/22 05:56:03;;;;;;;;;;;;;;;12.74;100.00;95439.38;5079173;28;19932;-77
2022/08/22 05:58:38;;;;;;;;;;;;;;;12.86;100.00;95442.41;5066609;28;20382;-77
2022/08/22 06:01:21;;;;;;;;;;;;;;;13.06;100.00;95451.91;5074425;28;19920;-78
2022/08/22 06:04:12;;;;;;;;;;;;;;;13.19;100.00;95453.03;5065539;28;20317;-77
2022/08/22 06:06:58;;;;;;;;;;;;;;;13.36;100.00;95455.19;5056287;28;20589;-77
2022/08/22 06:09:29;;;;;;;;;;;;;;;13.45;100.00;95453.44;5060476;28;19920;-78
2022/08/22 06:12:14;;;;;;;;;;;;;;;13.47;100.00;95455.81;5072087;28;19929;-77
2022/08/22 06:14:49;;;;;;;;;;;;;;;13.42;100.00;95461.16;5070975;28;19921;-78
2022/08/22 06:17:17;;;;;;;;;;;;;;;13.40;100.00;95461.44;5079538;28;19969;-78
2022/08/22 06:19:46;;;;;;;;;;;;;;;13.41;100.00;95463.03;5073362;28;19924;-77
2022/08/22 06:22:23;;;;;;;;;;;;;;;13.54;100.00;95468.66;5076054;28;19928;-78
2022/08/22 06:24:49;;;;;;;;;;;;;;;13.78;100.00;95465.91;5069655;28;20335;-78
2022/08/22 06:27:18;;;;;;;;;;;;;;;14.01;100.00;95464.19;5066464;28;19921;-78
2022/08/22 06:29:47;;;;;;;;;;;;;;;14.07;100.00;95462.22;5049866;28;19925;-78
2022/08/22 06:32:15;;;;;;;;;;;;;;;14.14;100.00;95452.03;5049209;28;19924;-77
2022/08/22 06:34:42;;;;;;;;;;;;;;;14.19;100.00;95449.28;5071083;28;19920;-77
2022/08/22 06:37:11;;;;;;;;;;;;;;;14.26;100.00;95460.25;5067049;28;19920;-76
2022/08/22 06:39:42;;;;;;;;;;;;;;;14.43;100.00;95464.19;5062522;28;19931;-77
2022/08/22 06:42:09;;;;;;;;;;;;;;;14.41;100.00;95461.03;5069810;28;20475;-79
2022/08/22 06:44:43;;;;;;;;;;;;;;;14.58;100.00;95469.19;5070666;28;19924;-79
2022/08/22 06:47:14;;;;;;;;;;;;;;;14.57;100.00;95464.97;5071501;28;19928;-78
2022/08/22 06:49:41;;;;;;;;;;;;;;;14.61;100.00;95465.97;5069217;28;20449;-77
2022/08/22 06:52:16;;;;;;;;;;;;;;;14.61;100.00;95460.66;5064601;28;19925;-77
2022/08/22 06:54:43;;;;;;;;;;;;;;;14.66;100.00;95465.09;5076503;28;20531;-77
2022/08/22 06:57:24;;;;;;;;;;;;;;;14.70;100.00;95469.50;5057200;28;19920;-78
2022/08/22 06:59:51;;;;;;;;;;;;;;;14.83;100.00;95456.53;5044545;28;19931;-77
2022/08/22 07:02:21;;;;;;;;;;;;;;;15.01;100.00;95463.56;5066898;28;19924;-78
2022/08/22 07:04:48;;;;;;;;;;;;;;;15.16;100.00;95469.63;5068090;28;19971;-77
2022/08/22 07:07:16;;;;;;;;;;;;;;;15.30;100.00;95469.56;5066227;28;19925;-77
2022/08/22 07:09:41;;;;;;;;;;;;;;;15.41;100.00;95476.19;5069390;28;19924;-77
2022/08/22 07:12:17;;;;;;;;;;;;;;;15.52;100.00;95460.84;5057454;28;20061;-76
2022/08/22 07:14:43;;;;;;;;;;;;;;;15.81;100.00;95470.25;5069649;28;19931;-76
2022/08/22 07:17:17;;;;;;;;;;;;;;;15.92;100.00;95463.59;5067315;28;19920;-76
2022/08/22 07:19:48;;;;;;;;;;;;;;;16.04;100.00;95466.47;5068806;28;20019;-78
2022/08/22 07:22:24;;;;;;;;;;;;;;;16.11;100.00;95460.72;5047149;28;19924;-78
2022/08/22 07:24:53;;;;;;;;;;;;;;;16.25;100.00;95465.94;5051813;28;20349;-77
2022/08/22 07:27:31;;;;;;;;;;;;;;;16.34;100.00;95458.78;5049152;28;19929;-76
2022/08/22 07:30:04;;;;;;;;;;;;;;;16.46;100.00;95466.16;5065601;28;20007;-76
2022/08/22 07:32:40;;;;;;;;;;;;;;;16.48;100.00;95468.50;5066365;28;19924;-76
2022/08/22 07:35:28;;;;;;;;;;;;;;;16.86;100.00;95473.31;5050538;28;20310;-76
2022/08/22 07:37:57;;;;;;;;;;;;;;;16.94;100.00;95457.41;5063065;28;19943;-77
2022/08/22 07:40:34;;;;;;;;;;;;;;;16.82;100.00;95461.72;5064944;28;19924;-76
2022/08/22 07:43:18;;;;;;;;;;;;;;;16.67;100.00;95455.00;5066453;28;19921;-77
2022/08/22 07:45:53;;;;;;;;;;;;;;;16.66;100.00;95456.84;5056422;28;19934;-76
2022/08/22 07:48:33;;;;;;;;;;;;;;;16.74;100.00;95456.09;5067509;28;19920;-76
2022/08/22 07:51:12;;;;;;;;;;;;;;;16.74;100.00;95456.09;5050379;28;19927;-77
2022/08/22 07:53:38;;;;;;;;;;;;;;;16.88;100.00;95460.50;5069813;28;19924;-79
2022/08/22 07:56:05;;;;;;;;;;;;;;;16.84;100.00;95459.53;5047165;28;19965;-78
2022/08/22 07:58:34;;;;;;;;;;;;;;;16.84;100.00;95454.22;5055281;28;19991;-77
2022/08/22 08:01:00;;;;;;;;;;;;;;;16.92;100.00;95450.81;5052255;28;19920;-79
2022/08/22 08:03:27;;;;;;;;;;;;;;;17.33;100.00;95460.25;5082141;28;19928;-77
2022/08/22 08:05:53;;;;;;;;;;;;;;;17.39;100.00;95458.97;5051523;28;19924;-76
2022/08/22 08:08:29;;;;;;;;;;;;;;;17.35;100.00;95458.03;5081550;28;19924;-81
2022/08/22 08:10:57;;;;;;;;;;;;;;;17.35;100.00;95458.03;5071298;28;19921;-76
2022/08/22 08:13:29;;;;;;;;;;;;;;;17.28;100.00;95453.22;5064623;28;20120;-78
2022/08/22 08:15:54;;;;;;;;;;;;;;;17.24;100.00;95451.47;5061381;28;19928;-79
2022/08/22 08:18:22;;;;;;;;;;;;;;;17.25;100.00;95447.72;5070176;28;19920;-78
2022/08/22 08:20:49;;;;;;;;;;;;;;;17.39;100.00;95447.56;5050781;28;20325;-78
2022/08/22 08:23:18;;;;;;;;;;;;;;;17.30;100.00;95460.88;5070832;28;19921;-77
2022/08/22 08:25:51;;;;;;;;;;;;;;;17.29;100.00;95452.09;5071108;28;19920;-77
2022/08/22 08:28:36;;;;;;;;;;;;;;;17.27;100.00;95446.31;5069856;28;19924;-77
2022/08/22 08:31:20;;;;;;;;;;;;;;;17.46;100.00;95448.66;5064153;28;19924;-78
2022/08/22 08:33:47;;;;;;;;;;;;;;;17.57;100.00;95443.00;5070569;28;20339;-78
2022/08/22 08:36:31;;;;;;;;;;;;;;;17.48;100.00;95448.31;5070299;28;20011;-76
2022/08/22 08:38:59;;;;;;;;;;;;;;;17.78;100.00;95449.22;5066028;28;19932;-78
2022/08/22 08:41:34;;;;;;;;;;;;;;;18.37;100.00;95437.13;5069654;28;19920;-77
2022/08/22 08:44:07;;;;;;;;;;;;;;;18.15;100.00;95441.63;5067624;28;19920;-80
2022/08/22 08:46:48;;;;;;;;;;;;;;;17.95;100.00;95437.00;5068583;28;20555;-78
2022/08/22 08:49:13;;;;;;;;;;;;;;;18.33;100.00;95436.22;5071778;28;19920;-78
2022/08/22 08:51:42;;;;;;;;;;;;;;;18.17;100.00;95442.09;5050330;28;20654;-78
2022/08/22 08:54:25;;;;;;;;;;;;;;;18.08;100.00;95438.66;5073133;28;19950;-77
2022/08/22 08:57:01;;;;;;;;;;;;;;;18.11;100.00;95440.69;5068974;28;19927;-77
2022/08/22 08:59:30;;;;;;;;;;;;;;;18.24;100.00;95443.47;5035497;28;20010;-77
2022/08/22 09:02:11;;;;;;;;;;;;;;;18.34;100.00;95449.22;5048004;28;19921;-77
2022/08/22 09:05:05;;;;;;;;;;;;;;;18.46;98.18;95429.91;5060149;28;20368;-77
2022/08/22 09:07:32;;;;;;;;;;;;;;;18.58;94.22;95431.09;5056071;28;19927;-76
2022/08/22 09:10:00;;;;;;;;;;;;;;;18.51;96.80;95429.69;5046332;28;19928;-77
2022/08/22 09:12:35;;;;;;;;;;;;;;;18.76;93.16;95432.56;5054252;28;19951;-77
2022/08/22 09:15:07;;;;;;;;;;;;;;;18.92;91.11;95434.66;5063021;28;19974;-76
2022/08/22 09:17:38;;;;;;;;;;;;;;;18.79;96.64;95437.25;5066657;28;19924;-77
2022/08/22 09:20:19;;;;;;;;;;;;;;;18.99;88.67;95434.94;5065999;28;19950;-77
2022/08/22 09:22:50;;;;;;;;;;;;;;;19.05;79.61;95428.31;5063906;28;19920;-81
2022/08/22 09:25:18;;;;;;;;;;;;;;;19.06;88.12;95435.19;5067623;28;20329;-78
2022/08/22 09:27:59;;;;;;;;;;;;;;;19.37;79.32;95428.69;5061749;28;20345;-80
2022/08/22 09:30:30;;;;;;;;;;;;;;;19.38;85.56;95433.69;5061420;28;20400;-80
2022/08/22 09:32:59;;;;;;;;;;;;;;;19.39;80.30;95432.59;5062577;28;19921;-79
2022/08/22 09:35:43;;;;;;;;;;;;;;;19.28;81.82;95430.63;5059723;28;19927;-77
2022/08/22 09:38:15;;;;;;;;;;;;;;;19.26;83.93;95432.84;5064699;28;19939;-77
2022/08/22 09:40:43;;;;;;;;;;;;;;;19.46;74.62;95432.03;5070178;28;19931;-80
2022/08/22 09:43:11;;;;;;;;;;;;;;;19.54;70.42;95427.75;5058620;28;20425;-76
2022/08/22 09:45:37;;;;;;;;;;;;;;;19.48;76.94;95424.50;5065013;28;19925;-77
2022/08/22 09:48:11;;;;;;;;;;;;;;;19.52;74.06;95430.75;5062326;28;20019;-79
2022/08/22 09:50:54;;;;;;;;;;;;;;;19.67;79.29;95425.91;5064161;28;19920;-83
2022/08/22 09:53:39;;;;;;;;;;;;;;;19.61;73.11;95424.53;5069452;28;19934;-76
2022/08/22 09:56:11;;;;;;;;;;;;;;;19.99;69.73;95418.97;5073472;28;19920;-76
2022/08/22 09:58:58;;;;;;;;;;;;;;;20.04;68.30;95421.44;5062855;28;19924;-77
2022/08/22 10:01:38;;;;;;;;;;;;;;;20.03;69.65;95422.53;5075483;28;19923;-76
2022/08/22 10:04:07;;;;;;;;;;;;;;;20.12;68.99;95425.09;5053129;28;19920;-76
2022/08/22 10:06:40;;;;;;;;;;;;;;;20.25;71.86;95423.22;5067736;28;19935;-77
2022/08/22 10:09:09;;;;;;;;;;;;;;;20.53;69.26;95427.88;5074463;28;19920;-77
2022/08/22 10:11:40;;;;;;;;;;;;;;;20.87;68.19;95421.28;5070605;28;20366;-77
2022/08/22 10:14:41;;;;;;;;;;;;;;;21.06;64.35;95428.75;5054735;28;19921;-77
2022/08/22 10:17:07;;;;;;;;;;;;;;;21.23;59.54;95422.34;5013003;28;19948;-77
2022/08/22 10:19:44;;;;;;;;;;;;;;;21.50;58.75;95430.69;5065316;28;20386;-77
2022/08/22 10:22:30;;;;;;;;;;;;;;;21.77;58.84;95429.16;5071442;28;19973;-76
2022/08/22 10:24:56;;;;;;;;;;;;;;;22.04;57.18;95421.41;5058784;28;19920;-79
2022/08/22 10:27:41;;;;;;;;;;;;;;;22.29;59.80;95424.66;5075170;28;19947;-76
2022/08/22 10:30:10;;;;;;;;;;;;;;;22.79;53.19;95426.97;5065550;28;19924;-77
2022/08/22 10:32:55;;;;;;;;;;;;;;;22.96;54.06;95426.59;5065467;28;19927;-77
2022/08/22 10:35:26;;;;;;;;;;;;;;;23.18;54.91;95424.38;5080178;28;19920;-76
2022/08/22 10:37:55;;;;;;;;;;;;;;;23.32;54.84;95427.34;5078756;28;20302;-79
2022/08/22 10:40:33;;;;;;;;;;;;;;;23.66;54.15;95413.38;5060568;28;20003;-77
2022/08/22 10:43:04;;;;;;;;;;;;;;;23.75;51.27;95410.47;5062595;28;20444;-76
2022/08/22 10:45:33;;;;;;;;;;;;;;;23.80;50.33;95402.13;5061814;28;19935;-77
2022/08/22 10:48:04;;;;;;;;;;;;;;;24.55;52.46;95408.75;5068751;28;19920;-77
2022/08/22 10:50:32;;;;;;;;;;;;;;;24.62;50.36;95410.75;5056598;28;19999;-77
2022/08/22 10:55:48;;;;;;;;;;;;;;;24.00;48.76;95406.31;5073073;28;19943;-80
2022/08/22 10:58:19;;;;;;;;;;;;;;;25.00;49.31;95397.44;5066241;28;19928;-79
2022/08/22 11:00:44;;;;;;;;;;;;;;;24.70;47.71;95398.22;5067219;28;20003;-78
2022/08/22 11:03:14;;;;;;;;;;;;;;;24.42;47.32;95409.28;5078703;28;19932;-78
2022/08/22 11:05:44;;;;;;;;;;;;;;;24.64;48.63;95405.03;5060990;28;19920;-77
2022/08/22 11:08:18;;;;;;;;;;;;;;;23.75;48.53;95405.88;5056874;28;19959;-78
2022/08/22 11:10:52;;;;;;;;;;;;;;;23.85;49.60;95415.28;5063715;28;20181;-77
2022/08/22 11:13:25;;;;;;;;;;;;;;;24.28;48.62;95405.25;5067172;28;19920;-77
2022/08/22 11:16:01;;;;;;;;;;;;;;;23.93;54.38;95408.13;5061248;28;19921;-79
2022/08/22 11:18:27;;;;;;;;;;;;;;;24.93;49.73;95403.50;5073273;28;19970;-79
2022/08/22 11:20:55;;;;;;;;;;;;;;;25.72;47.97;95409.81;5061717;28;19924;-78
2022/08/22 11:23:20;;;;;;;;;;;;;;;25.64;46.55;95410.88;5069326;28;20383;-80
2022/08/22 11:25:45;;;;;;;;;;;;;;;25.81;44.51;95403.38;5066709;28;19929;-78
2022/08/22 11:28:20;;;;;;;;;;;;;;;25.61;46.73;95400.84;5067223;28;19956;-78
2022/08/22 11:30:45;;;;;;;;;;;;;;;24.97;46.29;95408.94;5064226;28;19927;-78
2022/08/22 11:33:37;;;;;;;;;;;;;;;26.13;43.08;95409.06;5069793;28;19928;-77
2022/08/22 11:36:14;;;;;;;;;;;;;;;26.96;41.33;95401.53;5067091;28;20382;-78
2022/08/22 11:38:47;;;;;;;;;;;;;;;26.84;41.43;95409.94;5069276;28;19924;-78
2022/08/22 11:41:22;;;;;;;;;;;;;;;26.96;40.19;95398.84;5072333;28;19924;-77
2022/08/22 11:43:48;;;;;;;;;;;;;;;27.59;42.81;95413.00;5063935;28;19927;-78
2022/08/22 11:46:16;;;;;;;;;;;;;;;27.55;39.57;95414.16;5073148;28;19921;-77
2022/08/22 11:48:47;;;;;;;;;;;;;;;27.35;39.54;95409.06;5070981;28;20440;-78
2022/08/22 11:51:19;;;;;;;;;;;;;;;27.64;38.95;95409.13;5062482;28;19924;-78
2022/08/22 11:54:03;;;;;;;;;;;;;;;27.62;37.06;95408.75;5079917;28;19978;-78
2022/08/22 11:56:36;;;;;;;;;;;;;;;28.79;39.84;95403.81;5068044;28;19920;-78
2022/08/22 11:59:21;;;;;;;;;;;;;;;28.38;36.31;95406.94;5072745;28;19931;-78
2022/08/22 12:01:53;;;;;;;;;;;;;;;28.06;34.20;95402.31;5078832;28;20022;-78
2022/08/22 12:04:28;;;;;;;;;;;;;;;27.00;36.57;95415.84;5087247;28;20006;-78
2022/08/22 12:06:58;;;;;;;;;;;;;;;26.59;37.87;95407.84;5082180;28;19923;-78
2022/08/22 12:09:43;;;;;;;;;;;;;;;27.03;37.04;95412.38;5053076;28;19924;-77
2022/08/22 12:12:17;;;;;;;;;;;;;;;27.60;35.89;95400.28;5070264;28;19920;-78
2022/08/22 12:14:46;;;;;;;;;;;;;;;27.92;35.58;95391.44;5064770;28;19928;-77
2022/08/22 12:17:25;;;;;;;;;;;;;;;27.61;34.82;95399.09;5053536;28;19928;-78
2022/08/22 12:20:04;;;;;;;;;;;;;;;28.34;32.97;95396.09;5071224;28;19920;-78
2022/08/22 12:22:37;;;;;;;;;;;;;;;28.92;34.94;95389.84;5080643;28;19927;-77
2022/08/22 12:25:29;;;;;;;;;;;;;;;27.54;34.09;95393.69;5087176;28;19920;-78
2022/08/22 12:28:10;;;;;;;;;;;;;;;28.71;30.87;95386.03;5071578;28;20447;-77
2022/08/22 12:30:41;;;;;;;;;;;;;;;28.75;31.29;95386.00;5041795;28;20285;-77
2022/08/22 12:33:26;;;;;;;;;;;;;;;28.57;31.86;95369.78;5074703;28;19924;-78
2022/08/22 12:36:00;;;;;;;;;;;;;;;27.68;35.07;95382.91;5083883;28;19925;-78
2022/08/22 12:38:31;;;;;;;;;;;;;;;28.00;33.56;95374.06;5056582;28;19925;-79
2022/08/22 12:41:05;;;;;;;;;;;;;;;26.91;34.43;95374.91;5067213;28;20639;-79
2022/08/22 12:43:49;;;;;;;;;;;;;;;27.05;33.46;95385.00;5059822;28;20475;-79
2022/08/22 12:46:26;;;;;;;;;;;;;;;27.13;34.47;95375.78;5073812;28;19928;-83
2022/08/22 12:49:03;;;;;;;;;;;;;;;27.78;33.52;95360.50;5076671;28;20388;-80
2022/08/22 12:51:48;;;;;;;;;;;;;;;27.70;33.56;95369.78;5066250;28;20321;-79
2022/08/22 12:54:32;;;;;;;;;;;;;;;27.20;33.78;95372.34;5076620;28;20335;-78
2022/08/22 12:57:07;;;;;;;;;;;;;;;26.94;33.75;95368.75;5053962;28;19925;-79
2022/08/22 12:59:36;;;;;;;;;;;;;;;26.92;34.27;95368.34;5073984;28;19943;-77
2022/08/22 13:02:10;;;;;;;;;;;;;;;27.53;32.43;95371.28;5079178;28;19926;-78
2022/08/22 13:04:41;;;;;;;;;;;;;;;28.89;32.75;95366.25;5054172;28;19923;-78
2022/08/22 13:07:15;;;;;;;;;;;;;;;29.10;31.08;95363.47;5074604;28;19962;-77
2022/08/22 13:09:45;;;;;;;;;;;;;;;29.17;30.43;95360.72;5064739;28;19924;-78
2022/08/22 13:12:22;;;;;;;;;;;;;;;28.78;33.28;95364.34;5076158;28;19924;-78
2022/08/22 13:14:51;;;;;;;;;;;;;;;28.99;30.84;95362.72;5053196;28;19974;-79
2022/08/22 13:17:18;;;;;;;;;;;;;;;27.85;32.77;95364.41;5070268;28;20007;-78
2022/08/22 13:20:02;;;;;;;;;;;;;;;28.85;31.74;95358.91;5068868;28;19931;-78